Colon, North Carolina
Current Conditions -  °F | °C
As of 1:35 AM on Wednesday 28 Jan 2015 (Local Time) from KTTA Reporting Station
Clear Clear  
Wind Chill: -5°   Ceiling: Unl
Heat Index: -1°   Visibility: 10mi
Dew Point: -10°   Wind: 9mph
Humidity: 51%   Direction: 340°NNW
Pressure: 30.04"   Gusts: NA
Location:  35.493°N, 79.1765°W
Report Text: KTTA 280635Z AUTO 34008KT 10SM CLR M01/M10 A3004 RMK AO2 T10061096
Loading
Personal Weather Stations






























Interactive Weather Map New forecast layout! Learn more

10-Day Weather Forecast

Advertisements
Track Severe Weather on mobile